sensor_id;sensor_type;location;lat;lon;timestamp;pressure;altitude;pressure_sealevel;temperature;humidity
29825;BME280;16713;52.916;12.834;2022-12-17T00:01:31;101510.09;;;-0.86;76.67
29825;BME280;16713;52.916;12.834;2022-12-17T00:04:17;101521.25;;;-0.72;76.07
29825;BME280;16713;52.916;12.834;2022-12-17T00:07:02;101517.69;;;-0.78;76.48
29825;BME280;16713;52.916;12.834;2022-12-17T00:09:47;101521.13;;;-0.88;76.18
29825;BME280;16713;52.916;12.834;2022-12-17T00:12:32;101528.28;;;-0.66;75.73
29825;BME280;16713;52.916;12.834;2022-12-17T00:15:17;101525.88;;;-0.63;76.25
29825;BME280;16713;52.916;12.834;2022-12-17T00:18:06;101529.09;;;-0.66;75.22
29825;BME280;16713;52.916;12.834;2022-12-17T00:20:55;101536.38;;;-0.61;75.32
29825;BME280;16713;52.916;12.834;2022-12-17T00:23:41;101540.38;;;-0.69;76.10
29825;BME280;16713;52.916;12.834;2022-12-17T00:26:26;101542.38;;;-0.54;75.75
29825;BME280;16713;52.916;12.834;2022-12-17T00:29:11;101544.25;;;-0.55;75.67
29825;BME280;16713;52.916;12.834;2022-12-17T00:31:56;101533.25;;;-0.48;75.19
29825;BME280;16713;52.916;12.834;2022-12-17T00:34:42;101538.25;;;-0.62;74.95
29825;BME280;16713;52.916;12.834;2022-12-17T00:37:27;101543.38;;;-0.60;75.48
29825;BME280;16713;52.916;12.834;2022-12-17T00:40:12;101540.72;;;-0.55;75.00
29825;BME280;16713;52.916;12.834;2022-12-17T00:43:06;101543.38;;;-0.65;74.85
29825;BME280;16713;52.916;12.834;2022-12-17T00:45:52;101545.50;;;-0.67;75.29
29825;BME280;16713;52.916;12.834;2022-12-17T00:48:37;101549.28;;;-0.63;75.67
29825;BME280;16713;52.916;12.834;2022-12-17T00:51:23;101555.53;;;-0.58;74.61
29825;BME280;16713;52.916;12.834;2022-12-17T00:54:08;101555.25;;;-0.61;75.64
29825;BME280;16713;52.916;12.834;2022-12-17T00:56:54;101562.06;;;-0.49;74.00
29825;BME280;16713;52.916;12.834;2022-12-17T00:59:39;101566.34;;;-0.53;75.15
29825;BME280;16713;52.916;12.834;2022-12-17T01:02:24;101568.72;;;-0.61;74.48
29825;BME280;16713;52.916;12.834;2022-12-17T01:05:10;101570.88;;;-0.58;74.81
29825;BME280;16713;52.916;12.834;2022-12-17T01:07:55;101580.31;;;-0.61;74.47
29825;BME280;16713;52.916;12.834;2022-12-17T01:10:41;101582.91;;;-0.71;74.70
29825;BME280;16713;52.916;12.834;2022-12-17T01:13:25;101581.56;;;-0.68;74.37
29825;BME280;16713;52.916;12.834;2022-12-17T01:16:12;101584.63;;;-0.60;74.24
29825;BME280;16713;52.916;12.834;2022-12-17T01:18:58;101592.22;;;-0.52;74.02
29825;BME280;16713;52.916;12.834;2022-12-17T01:21:44;101599.94;;;-0.60;73.26
29825;BME280;16713;52.916;12.834;2022-12-17T01:24:29;101601.06;;;-0.56;73.99
29825;BME280;16713;52.916;12.834;2022-12-17T01:27:14;101607.84;;;-0.49;73.20
29825;BME280;16713;52.916;12.834;2022-12-17T01:29:59;101606.72;;;-0.58;73.43
29825;BME280;16713;52.916;12.834;2022-12-17T01:32:44;101610.72;;;-0.60;73.12
29825;BME280;16713;52.916;12.834;2022-12-17T01:35:29;101607.72;;;-0.69;72.66
29825;BME280;16713;52.916;12.834;2022-12-17T01:38:15;101605.72;;;-0.83;72.58
29825;BME280;16713;52.916;12.834;2022-12-17T01:41:01;101608.50;;;-0.73;73.70
29825;BME280;16713;52.916;12.834;2022-12-17T01:43:46;101616.00;;;-0.75;72.75
29825;BME280;16713;52.916;12.834;2022-12-17T01:46:35;101608.88;;;-0.92;73.56
29825;BME280;16713;52.916;12.834;2022-12-17T01:49:24;101611.09;;;-0.83;73.05
29825;BME280;16713;52.916;12.834;2022-12-17T01:52:14;101613.09;;;-1.01;73.36
29825;BME280;16713;52.916;12.834;2022-12-17T01:55:03;101612.41;;;-0.86;72.87
29825;BME280;16713;52.916;12.834;2022-12-17T01:57:48;101614.84;;;-0.85;72.77
29825;BME280;16713;52.916;12.834;2022-12-17T02:00:33;101607.78;;;-0.91;73.96
29825;BME280;16713;52.916;12.834;2022-12-17T02:03:18;101610.69;;;-0.97;72.93
29825;BME280;16713;52.916;12.834;2022-12-17T02:06:23;101610.41;;;-1.01;73.90
29825;BME280;16713;52.916;12.834;2022-12-17T02:09:23;101611.81;;;-0.93;73.67
29825;BME280;16713;52.916;12.834;2022-12-17T02:12:15;101620.06;;;-1.05;74.00
29825;BME280;16713;52.916;12.834;2022-12-17T02:15:18;101612.75;;;-1.09;74.28
29825;BME280;16713;52.916;12.834;2022-12-17T02:18:09;101611.47;;;-1.02;74.02
29825;BME280;16713;52.916;12.834;2022-12-17T02:20:59;101615.91;;;-1.17;73.96
29825;BME280;16713;52.916;12.834;2022-12-17T02:23:53;101613.06;;;-1.06;74.31
29825;BME280;16713;52.916;12.834;2022-12-17T02:26:58;101613.06;;;-1.06;74.21
29825;BME280;16713;52.916;12.834;2022-12-17T02:29:49;101616.59;;;-1.00;73.36
29825;BME280;16713;52.916;12.834;2022-12-17T02:32:37;101618.25;;;-0.99;73.00
29825;BME280;16713;52.916;12.834;2022-12-17T02:35:26;101626.84;;;-0.97;73.46
29825;BME280;16713;52.916;12.834;2022-12-17T02:38:24;101629.53;;;-0.97;72.67
29825;BME280;16713;52.916;12.834;2022-12-17T02:41:22;101626.53;;;-1.01;73.90
29825;BME280;16713;52.916;12.834;2022-12-17T02:44:09;101630.31;;;-1.02;73.82
29825;BME280;16713;52.916;12.834;2022-12-17T02:46:56;101635.09;;;-1.35;74.41
29825;BME280;16713;52.916;12.834;2022-12-17T02:49:42;101644.53;;;-1.06;74.00
29825;BME280;16713;52.916;12.834;2022-12-17T02:52:29;101638.91;;;-1.05;74.06
29825;BME280;16713;52.916;12.834;2022-12-17T02:55:15;101644.94;;;-1.19;73.58
29825;BME280;16713;52.916;12.834;2022-12-17T02:57:59;101645.00;;;-1.14;73.84
29825;BME280;16713;52.916;12.834;2022-12-17T03:01:01;101653.28;;;-1.21;73.30
29825;BME280;16713;52.916;12.834;2022-12-17T03:03:46;101650.53;;;-1.26;73.19
29825;BME280;16713;52.916;12.834;2022-12-17T03:06:31;101656.53;;;-1.19;74.23
29825;BME280;16713;52.916;12.834;2022-12-17T03:09:16;101657.38;;;-1.40;73.92
29825;BME280;16713;52.916;12.834;2022-12-17T03:12:02;101660.78;;;-1.23;73.72
29825;BME280;16713;52.916;12.834;2022-12-17T03:14:47;101657.50;;;-1.25;74.01
29825;BME280;16713;52.916;12.834;2022-12-17T03:17:32;101660.38;;;-1.36;73.95
29825;BME280;16713;52.916;12.834;2022-12-17T03:20:17;101669.28;;;-1.31;74.63
29825;BME280;16713;52.916;12.834;2022-12-17T03:23:04;101674.03;;;-1.43;74.26
29825;BME280;16713;52.916;12.834;2022-12-17T03:25:51;101681.25;;;-1.43;73.83
29825;BME280;16713;52.916;12.834;2022-12-17T03:28:36;101677.69;;;-1.70;74.83
29825;BME280;16713;52.916;12.834;2022-12-17T03:31:21;101682.03;;;-1.48;74.36
29825;BME280;16713;52.916;12.834;2022-12-17T03:34:06;101678.63;;;-1.60;74.07
29825;BME280;16713;52.916;12.834;2022-12-17T03:36:51;101685.44;;;-1.74;74.74
29825;BME280;16713;52.916;12.834;2022-12-17T03:39:36;101683.34;;;-1.72;74.45
29825;BME280;16713;52.916;12.834;2022-12-17T03:42:21;101693.34;;;-1.67;74.33
29825;BME280;16713;52.916;12.834;2022-12-17T03:45:06;101685.81;;;-1.87;75.02
29825;BME280;16713;52.916;12.834;2022-12-17T03:47:51;101683.53;;;-1.95;75.32
29825;BME280;16713;52.916;12.834;2022-12-17T03:50:46;101684.94;;;-1.92;75.72
29825;BME280;16713;52.916;12.834;2022-12-17T03:53:39;101682.34;;;-2.04;76.00
29825;BME280;16713;52.916;12.834;2022-12-17T03:56:25;101684.50;;;-1.84;76.27
29825;BME280;16713;52.916;12.834;2022-12-17T03:59:10;101681.22;;;-1.70;74.98
29825;BME280;16713;52.916;12.834;2022-12-17T04:01:55;101685.63;;;-1.80;75.03
29825;BME280;16713;52.916;12.834;2022-12-17T04:04:40;101688.22;;;-2.07;75.72
29825;BME280;16713;52.916;12.834;2022-12-17T04:07:25;101694.88;;;-1.93;75.98
29825;BME280;16713;52.916;12.834;2022-12-17T04:10:10;101704.19;;;-1.79;75.33
29825;BME280;16713;52.916;12.834;2022-12-17T04:12:55;101699.22;;;-1.70;74.39
29825;BME280;16713;52.916;12.834;2022-12-17T04:15:40;101706.38;;;-1.76;74.35
29825;BME280;16713;52.916;12.834;2022-12-17T04:18:25;101710.75;;;-1.91;74.71
29825;BME280;16713;52.916;12.834;2022-12-17T04:21:10;101712.41;;;-2.23;76.23
29825;BME280;16713;52.916;12.834;2022-12-17T04:23:55;101706.69;;;-1.94;75.47
29825;BME280;16713;52.916;12.834;2022-12-17T04:26:40;101716.28;;;-1.98;75.60
29825;BME280;16713;52.916;12.834;2022-12-17T04:29:25;101713.59;;;-1.98;75.68
29825;BME280;16713;52.916;12.834;2022-12-17T04:32:10;101714.63;;;-1.82;76.05
29825;BME280;16713;52.916;12.834;2022-12-17T04:35:00;101714.34;;;-2.02;75.85
29825;BME280;16713;52.916;12.834;2022-12-17T04:37:45;101717.59;;;-2.00;75.27
29825;BME280;16713;52.916;12.834;2022-12-17T04:40:30;101725.13;;;-1.81;74.96
29825;BME280;16713;52.916;12.834;2022-12-17T04:43:15;101727.34;;;-1.78;75.15
29825;BME280;16713;52.916;12.834;2022-12-17T04:46:00;101724.34;;;-1.81;75.04
29825;BME280;16713;52.916;12.834;2022-12-17T04:48:45;101730.59;;;-1.76;74.92
29825;BME280;16713;52.916;12.834;2022-12-17T04:51:30;101731.81;;;-1.83;74.40
29825;BME280;16713;52.916;12.834;2022-12-17T04:54:14;101730.22;;;-1.84;74.78
29825;BME280;16713;52.916;12.834;2022-12-17T04:56:59;101734.44;;;-1.88;74.88
29825;BME280;16713;52.916;12.834;2022-12-17T04:59:44;101732.25;;;-2.08;75.45
29825;BME280;16713;52.916;12.834;2022-12-17T05:02:29;101736.81;;;-1.92;75.24
29825;BME280;16713;52.916;12.834;2022-12-17T05:05:14;101743.72;;;-1.79;75.20
29825;BME280;16713;52.916;12.834;2022-12-17T05:07:59;101752.78;;;-2.02;75.50
29825;BME280;16713;52.916;12.834;2022-12-17T05:10:43;101751.06;;;-2.08;74.93
29825;BME280;16713;52.916;12.834;2022-12-17T05:13:28;101741.81;;;-2.00;75.47
29825;BME280;16713;52.916;12.834;2022-12-17T05:16:13;101754.50;;;-1.96;76.00
29825;BME280;16713;52.916;12.834;2022-12-17T05:18:58;101761.09;;;-2.03;75.43
29825;BME280;16713;52.916;12.834;2022-12-17T05:21:43;101760.19;;;-2.09;76.33
29825;BME280;16713;52.916;12.834;2022-12-17T05:24:28;101768.00;;;-1.91;74.61
29825;BME280;16713;52.916;12.834;2022-12-17T05:27:12;101770.84;;;-1.81;74.52
29825;BME280;16713;52.916;12.834;2022-12-17T05:29:57;101768.59;;;-2.05;74.53
29825;BME280;16713;52.916;12.834;2022-12-17T05:32:42;101765.16;;;-2.01;74.79
29825;BME280;16713;52.916;12.834;2022-12-17T05:35:26;101769.78;;;-2.13;75.34
29825;BME280;16713;52.916;12.834;2022-12-17T05:38:11;101771.19;;;-1.94;75.26
29825;BME280;16713;52.916;12.834;2022-12-17T05:40:57;101773.38;;;-1.91;74.20
29825;BME280;16713;52.916;12.834;2022-12-17T05:43:43;101775.41;;;-1.81;74.08
29825;BME280;16713;52.916;12.834;2022-12-17T05:46:28;101783.81;;;-1.94;74.01
29825;BME280;16713;52.916;12.834;2022-12-17T05:49:13;101784.72;;;-2.05;74.54
29825;BME280;16713;52.916;12.834;2022-12-17T05:51:58;101783.97;;;-2.01;74.68
29825;BME280;16713;52.916;12.834;2022-12-17T05:54:43;101788.78;;;-2.03;74.04
29825;BME280;16713;52.916;12.834;2022-12-17T05:57:28;101802.44;;;-2.21;74.81
29825;BME280;16713;52.916;12.834;2022-12-17T06:00:21;101796.34;;;-2.00;74.92
29825;BME280;16713;52.916;12.834;2022-12-17T06:03:07;101805.16;;;-1.88;74.43
29825;BME280;16713;52.916;12.834;2022-12-17T06:05:54;101806.84;;;-1.98;74.52
29825;BME280;16713;52.916;12.834;2022-12-17T06:08:39;101815.66;;;-2.03;74.15
29825;BME280;16713;52.916;12.834;2022-12-17T06:11:25;101820.94;;;-2.08;74.52
29825;BME280;16713;52.916;12.834;2022-12-17T06:14:10;101815.00;;;-2.10;74.68
29825;BME280;16713;52.916;12.834;2022-12-17T06:16:55;101818.41;;;-1.98;75.15
29825;BME280;16713;52.916;12.834;2022-12-17T06:19:39;101819.94;;;-2.35;75.34
29825;BME280;16713;52.916;12.834;2022-12-17T06:22:24;101820.06;;;-2.42;75.79
29825;BME280;16713;52.916;12.834;2022-12-17T06:25:09;101821.09;;;-2.31;76.40
29825;BME280;16713;52.916;12.834;2022-12-17T06:27:58;101823.69;;;-2.36;76.21
29825;BME280;16713;52.916;12.834;2022-12-17T06:30:53;101827.53;;;-2.15;75.08
29825;BME280;16713;52.916;12.834;2022-12-17T06:33:39;101830.41;;;-2.05;74.68
29825;BME280;16713;52.916;12.834;2022-12-17T06:36:24;101835.03;;;-2.01;74.58
29825;BME280;16713;52.916;12.834;2022-12-17T06:39:09;101833.34;;;-2.07;74.15
29825;BME280;16713;52.916;12.834;2022-12-17T06:41:54;101831.28;;;-2.00;74.21
29825;BME280;16713;52.916;12.834;2022-12-17T06:44:38;101832.00;;;-2.04;74.08
29825;BME280;16713;52.916;12.834;2022-12-17T06:47:23;101832.75;;;-2.09;74.72
29825;BME280;16713;52.916;12.834;2022-12-17T06:50:08;101847.50;;;-2.40;74.44
29825;BME280;16713;52.916;12.834;2022-12-17T06:53:01;101845.94;;;-2.52;75.84
29825;BME280;16713;52.916;12.834;2022-12-17T06:55:47;101856.97;;;-2.65;75.98
29825;BME280;16713;52.916;12.834;2022-12-17T06:58:32;101858.03;;;-2.66;76.62
29825;BME280;16713;52.916;12.834;2022-12-17T07:01:17;101869.44;;;-2.71;76.53
29825;BME280;16713;52.916;12.834;2022-12-17T07:04:03;101865.53;;;-2.80;76.80
29825;BME280;16713;52.916;12.834;2022-12-17T07:06:48;101876.47;;;-2.42;75.81
29825;BME280;16713;52.916;12.834;2022-12-17T07:09:33;101871.25;;;-2.48;76.00
29825;BME280;16713;52.916;12.834;2022-12-17T07:12:19;101871.69;;;-2.68;75.57
29825;BME280;16713;52.916;12.834;2022-12-17T07:15:04;101873.56;;;-2.68;76.15
29825;BME280;16713;52.916;12.834;2022-12-17T07:17:59;101878.91;;;-2.40;75.78
29825;BME280;16713;52.916;12.834;2022-12-17T07:20:45;101879.16;;;-2.42;74.73
29825;BME280;16713;52.916;12.834;2022-12-17T07:23:31;101876.97;;;-2.45;74.91
29825;BME280;16713;52.916;12.834;2022-12-17T07:26:17;101883.81;;;-2.37;75.21
29825;BME280;16713;52.916;12.834;2022-12-17T07:29:02;101893.00;;;-2.21;75.63
29825;BME280;16713;52.916;12.834;2022-12-17T07:31:47;101906.81;;;-2.29;75.02
29825;BME280;16713;52.916;12.834;2022-12-17T07:34:32;101914.03;;;-2.58;74.81
29825;BME280;16713;52.916;12.834;2022-12-17T07:37:33;101910.50;;;-2.47;75.15
29825;BME280;16713;52.916;12.834;2022-12-17T07:40:18;101918.66;;;-2.42;75.38
29825;BME280;16713;52.916;12.834;2022-12-17T07:43:15;101928.81;;;-2.44;74.77
29825;BME280;16713;52.916;12.834;2022-12-17T07:46:01;101921.41;;;-2.37;75.37
29825;BME280;16713;52.916;12.834;2022-12-17T07:48:46;101929.44;;;-2.25;74.37
29825;BME280;16713;52.916;12.834;2022-12-17T07:51:31;101933.53;;;-2.23;74.19
29825;BME280;16713;52.916;12.834;2022-12-17T07:54:16;101943.91;;;-2.15;74.05
29825;BME280;16713;52.916;12.834;2022-12-17T07:57:01;101947.63;;;-2.16;74.05
29825;BME280;16713;52.916;12.834;2022-12-17T07:59:46;101947.34;;;-2.31;74.01
29825;BME280;16713;52.916;12.834;2022-12-17T08:02:30;101949.72;;;-2.46;74.43
29825;BME280;16713;52.916;12.834;2022-12-17T08:05:15;101955.69;;;-2.56;75.16
29825;BME280;16713;52.916;12.834;2022-12-17T08:08:11;101960.13;;;-2.61;74.98
29825;BME280;16713;52.916;12.834;2022-12-17T08:10:57;101956.19;;;-2.70;75.33
29825;BME280;16713;52.916;12.834;2022-12-17T08:13:42;101958.47;;;-2.51;75.69
29825;BME280;16713;52.916;12.834;2022-12-17T08:16:26;101966.16;;;-2.43;75.05
29825;BME280;16713;52.916;12.834;2022-12-17T08:19:12;101973.88;;;-2.46;75.51
29825;BME280;16713;52.916;12.834;2022-12-17T08:21:58;101969.00;;;-2.49;75.34
29825;BME280;16713;52.916;12.834;2022-12-17T08:24:42;101971.88;;;-2.39;75.54
29825;BME280;16713;52.916;12.834;2022-12-17T08:27:27;101983.91;;;-2.42;74.92
29825;BME280;16713;52.916;12.834;2022-12-17T08:30:12;101977.94;;;-2.32;75.46
29825;BME280;16713;52.916;12.834;2022-12-17T08:33:04;101989.84;;;-2.28;75.00
29825;BME280;16713;52.916;12.834;2022-12-17T08:35:53;101994.84;;;-2.20;74.96
29825;BME280;16713;52.916;12.834;2022-12-17T08:38:39;101994.97;;;-2.26;75.77
29825;BME280;16713;52.916;12.834;2022-12-17T08:41:37;101998.13;;;-2.18;75.46
29825;BME280;16713;52.916;12.834;2022-12-17T08:44:29;101993.38;;;-2.39;74.54
29825;BME280;16713;52.916;12.834;2022-12-17T08:47:14;102003.16;;;-2.33;74.96
29825;BME280;16713;52.916;12.834;2022-12-17T08:49:59;102004.03;;;-2.56;75.33
29825;BME280;16713;52.916;12.834;2022-12-17T08:52:43;102004.13;;;-2.51;76.04
29825;BME280;16713;52.916;12.834;2022-12-17T08:55:28;102006.72;;;-2.56;75.31
29825;BME280;16713;52.916;12.834;2022-12-17T08:58:13;102010.41;;;-2.45;75.89
29825;BME280;16713;52.916;12.834;2022-12-17T09:00:58;102011.81;;;-2.43;75.41
29825;BME280;16713;52.916;12.834;2022-12-17T09:03:47;102021.13;;;-2.22;75.30
29825;BME280;16713;52.916;12.834;2022-12-17T09:06:31;102015.41;;;-2.25;74.89
29825;BME280;16713;52.916;12.834;2022-12-17T09:09:16;102013.44;;;-2.30;75.37
29825;BME280;16713;52.916;12.834;2022-12-17T09:12:01;102016.47;;;-2.38;74.84
29825;BME280;16713;52.916;12.834;2022-12-17T09:14:46;102013.03;;;-2.62;75.68
29825;BME280;16713;52.916;12.834;2022-12-17T09:17:31;102005.09;;;-2.68;75.56
29825;BME280;16713;52.916;12.834;2022-12-17T09:20:16;102008.00;;;-2.70;75.21
29825;BME280;16713;52.916;12.834;2022-12-17T09:23:01;102006.81;;;-2.51;75.79
29825;BME280;16713;52.916;12.834;2022-12-17T09:25:53;102011.94;;;-2.38;76.12
29825;BME280;16713;52.916;12.834;2022-12-17T09:28:38;102008.00;;;-2.58;75.61
29825;BME280;16713;52.916;12.834;2022-12-17T09:31:24;102003.00;;;-2.66;76.27
29825;BME280;16713;52.916;12.834;2022-12-17T09:34:10;102015.47;;;-2.60;76.10
29825;BME280;16713;52.916;12.834;2022-12-17T09:36:56;102023.66;;;-2.78;76.19
29825;BME280;16713;52.916;12.834;2022-12-17T09:39:41;102019.47;;;-2.74;76.50
29825;BME280;16713;52.916;12.834;2022-12-17T09:42:30;102020.84;;;-2.60;76.18
29825;BME280;16713;52.916;12.834;2022-12-17T09:45:59;102013.03;;;-2.50;76.28
29825;BME280;16713;52.916;12.834;2022-12-17T09:51:43;102020.59;;;-2.36;74.47
29825;BME280;16713;52.916;12.834;2022-12-17T09:54:39;102026.16;;;-2.37;73.73
29825;BME280;16713;52.916;12.834;2022-12-17T09:57:29;102022.34;;;-2.41;73.91
29825;BME280;16713;52.916;12.834;2022-12-17T10:03:17;102031.53;;;-2.37;73.71
29825;BME280;16713;52.916;12.834;2022-12-17T10:06:11;102022.81;;;-2.67;73.51
29825;BME280;16713;52.916;12.834;2022-12-17T10:09:00;102025.28;;;-2.66;74.15
29825;BME280;16713;52.916;12.834;2022-12-17T10:11:45;102028.91;;;-2.83;74.41
29825;BME280;16713;52.916;12.834;2022-12-17T10:14:31;102030.56;;;-2.82;74.23
29825;BME280;16713;52.916;12.834;2022-12-17T10:17:21;102029.13;;;-2.73;74.45
29825;BME280;16713;52.916;12.834;2022-12-17T10:21:11;102026.47;;;-2.73;74.38
29825;BME280;16713;52.916;12.834;2022-12-17T10:23:32;102036.25;;;-2.56;73.48
29825;BME280;16713;52.916;12.834;2022-12-17T10:26:21;102036.59;;;-2.75;74.43
29825;BME280;16713;52.916;12.834;2022-12-17T10:32:10;102042.44;;;-2.78;74.10
29825;BME280;16713;52.916;12.834;2022-12-17T10:34:55;102043.50;;;-2.68;74.25
29825;BME280;16713;52.916;12.834;2022-12-17T10:37:40;102055.88;;;-2.55;73.44
29825;BME280;16713;52.916;12.834;2022-12-17T10:40:28;102062.03;;;-2.55;73.02
29825;BME280;16713;52.916;12.834;2022-12-17T10:49:23;102066.72;;;-2.62;72.56
29825;BME280;16713;52.916;12.834;2022-12-17T10:52:25;102068.22;;;-2.54;72.61
29825;BME280;16713;52.916;12.834;2022-12-17T10:55:24;102065.44;;;-2.59;73.14
29825;BME280;16713;52.916;12.834;2022-12-17T10:58:15;102072.22;;;-2.68;73.31
29825;BME280;16713;52.916;12.834;2022-12-17T11:01:01;102073.94;;;-2.62;72.60
29825;BME280;16713;52.916;12.834;2022-12-17T11:03:55;102084.78;;;-2.80;73.11
29825;BME280;16713;52.916;12.834;2022-12-17T11:06:45;102087.38;;;-2.74;73.96
29825;BME280;16713;52.916;12.834;2022-12-17T11:09:59;102090.88;;;-2.62;73.44
29825;BME280;16713;52.916;12.834;2022-12-17T11:12:48;102087.75;;;-2.59;74.47
29825;BME280;16713;52.916;12.834;2022-12-17T11:15:51;102099.41;;;-2.42;73.87
29825;BME280;16713;52.916;12.834;2022-12-17T11:21:43;102103.97;;;-2.54;72.85
29825;BME280;16713;52.916;12.834;2022-12-17T11:24:35;102108.03;;;-2.51;73.63
29825;BME280;16713;52.916;12.834;2022-12-17T11:27:27;102111.31;;;-2.38;73.58
29825;BME280;16713;52.916;12.834;2022-12-17T11:30:15;102109.56;;;-2.32;73.09
29825;BME280;16713;52.916;12.834;2022-12-17T11:33:04;102110.84;;;-2.58;73.62
29825;BME280;16713;52.916;12.834;2022-12-17T11:36:06;102108.84;;;-2.62;74.22
29825;BME280;16713;52.916;12.834;2022-12-17T11:42:01;102099.41;;;-2.65;74.73
29825;BME280;16713;52.916;12.834;2022-12-17T11:44:59;102115.19;;;-2.57;73.83
29825;BME280;16713;52.916;12.834;2022-12-17T11:48:14;102110.59;;;-2.56;74.76
29825;BME280;16713;52.916;12.834;2022-12-17T11:51:17;102117.50;;;-2.60;74.21
29825;BME280;16713;52.916;12.834;2022-12-17T11:54:21;102117.75;;;-2.50;74.70
29825;BME280;16713;52.916;12.834;2022-12-17T11:57:19;102117.41;;;-2.42;73.51
29825;BME280;16713;52.916;12.834;2022-12-17T12:00:18;102119.84;;;-2.41;73.82
29825;BME280;16713;52.916;12.834;2022-12-17T12:09:30;102123.22;;;-2.45;74.24
29825;BME280;16713;52.916;12.834;2022-12-17T12:19:18;102131.88;;;-2.43;74.42
29825;BME280;16713;52.916;12.834;2022-12-17T12:22:32;102141.69;;;-2.49;74.17
29825;BME280;16713;52.916;12.834;2022-12-17T12:25:52;102138.88;;;-2.42;74.30
29825;BME280;16713;52.916;12.834;2022-12-17T12:28:54;102144.25;;;-2.19;74.08
29825;BME280;16713;52.916;12.834;2022-12-17T12:34:53;102138.97;;;-2.25;73.53
29825;BME280;16713;52.916;12.834;2022-12-17T12:37:39;102139.81;;;-2.25;73.41
29825;BME280;16713;52.916;12.834;2022-12-17T12:40:37;102138.88;;;-2.42;73.11
29825;BME280;16713;52.916;12.834;2022-12-17T12:43:28;102130.47;;;-2.46;74.64
29825;BME280;16713;52.916;12.834;2022-12-17T12:49:28;102139.81;;;-2.48;74.78
29825;BME280;16713;52.916;12.834;2022-12-17T12:52:23;102136.66;;;-2.57;75.16
29825;BME280;16713;52.916;12.834;2022-12-17T12:55:10;102128.22;;;-2.37;74.59
29825;BME280;16713;52.916;12.834;2022-12-17T12:58:05;102125.91;;;-2.45;75.18
29825;BME280;16713;52.916;12.834;2022-12-17T13:00:52;102132.56;;;-2.59;74.85
29825;BME280;16713;52.916;12.834;2022-12-17T13:14:13;102137.38;;;-2.26;75.02
29825;BME280;16713;52.916;12.834;2022-12-17T13:16:54;102143.69;;;-2.32;74.91
29825;BME280;16713;52.916;12.834;2022-12-17T13:24:49;102156.50;;;-2.35;75.19
29825;BME280;16713;52.916;12.834;2022-12-17T13:30:42;102169.34;;;-2.37;75.08
29825;BME280;16713;52.916;12.834;2022-12-17T13:38:44;102165.28;;;-2.39;75.78
29825;BME280;16713;52.916;12.834;2022-12-17T13:41:16;102170.88;;;-2.29;76.65
29825;BME280;16713;52.916;12.834;2022-12-17T13:43:53;102165.16;;;-2.32;76.15
29825;BME280;16713;52.916;12.834;2022-12-17T13:46:44;102163.16;;;-2.25;76.62
29825;BME280;16713;52.916;12.834;2022-12-17T13:49:19;102167.38;;;-2.29;76.55
29825;BME280;16713;52.916;12.834;2022-12-17T13:51:47;102167.63;;;-2.31;76.40
29825;BME280;16713;52.916;12.834;2022-12-17T13:54:16;102163.03;;;-2.31;75.88
29825;BME280;16713;52.916;12.834;2022-12-17T13:56:44;102166.69;;;-2.25;76.44
29825;BME280;16713;52.916;12.834;2022-12-17T13:59:19;102165.63;;;-2.24;75.89
29825;BME280;16713;52.916;12.834;2022-12-17T14:01:48;102170.06;;;-2.29;75.79
29825;BME280;16713;52.916;12.834;2022-12-17T14:04:26;102175.44;;;-2.29;75.31
29825;BME280;16713;52.916;12.834;2022-12-17T14:06:58;102177.41;;;-2.25;76.04
29825;BME280;16713;52.916;12.834;2022-12-17T14:09:34;102182.09;;;-2.32;75.62
29825;BME280;16713;52.916;12.834;2022-12-17T14:12:04;102192.72;;;-2.25;75.64
29825;BME280;16713;52.916;12.834;2022-12-17T14:14:53;102200.66;;;-2.31;75.19
29825;BME280;16713;52.916;12.834;2022-12-17T14:17:27;102195.19;;;-2.36;76.01
29825;BME280;16713;52.916;12.834;2022-12-17T14:20:07;102195.63;;;-2.39;76.21
29825;BME280;16713;52.916;12.834;2022-12-17T14:22:38;102198.41;;;-2.45;75.77
29825;BME280;16713;52.916;12.834;2022-12-17T14:25:22;102199.59;;;-2.41;75.09
29825;BME280;16713;52.916;12.834;2022-12-17T14:28:01;102200.31;;;-2.46;75.34
29825;BME280;16713;52.916;12.834;2022-12-17T14:30:41;102218.38;;;-2.53;74.90
29825;BME280;16713;52.916;12.834;2022-12-17T14:36:16;102214.41;;;-2.62;74.98
29825;BME280;16713;52.916;12.834;2022-12-17T14:41:18;102214.50;;;-2.68;74.79
29825;BME280;16713;52.916;12.834;2022-12-17T14:44:04;102207.84;;;-2.66;74.76
29825;BME280;16713;52.916;12.834;2022-12-17T14:46:33;102215.78;;;-2.59;74.54
29825;BME280;16713;52.916;12.834;2022-12-17T14:49:01;102220.56;;;-2.61;74.79
29825;BME280;16713;52.916;12.834;2022-12-17T14:51:36;102228.97;;;-2.69;74.87
29825;BME280;16713;52.916;12.834;2022-12-17T14:56:52;102239.50;;;-2.68;75.39
29825;BME280;16713;52.916;12.834;2022-12-17T15:01:51;102240.78;;;-2.59;74.51
29825;BME280;16713;52.916;12.834;2022-12-17T15:04:22;102243.13;;;-2.62;75.02
29825;BME280;16713;52.916;12.834;2022-12-17T15:06:49;102238.34;;;-2.60;75.37
29825;BME280;16713;52.916;12.834;2022-12-17T15:09:19;102236.59;;;-2.66;75.50
29825;BME280;16713;52.916;12.834;2022-12-17T15:11:45;102234.22;;;-2.63;75.04
29825;BME280;16713;52.916;12.834;2022-12-17T15:14:12;102238.53;;;-2.73;75.11
29825;BME280;16713;52.916;12.834;2022-12-17T15:16:38;102235.53;;;-2.65;75.17
29825;BME280;16713;52.916;12.834;2022-12-17T15:19:05;102233.44;;;-2.63;75.78
29825;BME280;16713;52.916;12.834;2022-12-17T15:21:32;102244.53;;;-2.60;75.51
29825;BME280;16713;52.916;12.834;2022-12-17T15:23:58;102251.53;;;-2.59;76.07
29825;BME280;16713;52.916;12.834;2022-12-17T15:26:25;102250.00;;;-2.55;76.22
29825;BME280;16713;52.916;12.834;2022-12-17T15:28:51;102240.22;;;-2.49;75.66
29825;BME280;16713;52.916;12.834;2022-12-17T15:31:18;102245.59;;;-2.49;76.26
29825;BME280;16713;52.916;12.834;2022-12-17T15:33:50;102247.81;;;-2.46;76.17